Time;durP1;ratioP1;P1;durP2;ratioP2;P2;SDS_P1;SDS_P2;PMS_P1;PMS_P2;Temp;Humidity;BMP_temperature;BMP_pressure;BME280_temperature;BME280_humidity;BME280_pressure;Samples;Min_cycle;Max_cycle;Signal;HPM_P1;HPM_P2
2022/04/08 00:01:24;;;;;;;1.97;1.00;;;;;;;10.73;75.23;98278.31;4995694;28;20575;-76
2022/04/08 00:03:49;;;;;;;1.08;0.80;;;;;;;10.73;75.51;98277.47;5009107;28;20258;-75
2022/04/08 00:06:15;;;;;;;3.00;1.23;;;;;;;10.73;75.95;98275.69;4994490;28;20223;-76
2022/04/08 00:08:41;;;;;;;1.10;1.00;;;;;;;10.72;76.10;98279.28;4995479;28;20270;-73
2022/04/08 00:11:06;;;;;;;1.10;0.90;;;;;;;10.71;76.03;98276.78;4993160;28;20462;-73
2022/04/08 00:13:32;;;;;;;3.33;1.10;;;;;;;10.70;76.34;98281.19;4995896;28;20211;-77
2022/04/08 00:15:57;;;;;;;1.20;0.87;;;;;;;10.70;76.34;98286.44;4994571;28;20223;-73
2022/04/08 00:18:23;;;;;;;1.00;0.90;;;;;;;10.70;76.58;98280.38;4990287;28;20212;-74
2022/04/08 00:20:49;;;;;;;3.00;0.85;;;;;;;10.69;76.48;98282.16;4992033;28;20219;-73
2022/04/08 00:23:14;;;;;;;1.83;1.00;;;;;;;10.70;76.27;98296.13;4989204;28;20207;-76
2022/04/08 00:25:40;;;;;;;0.83;0.80;;;;;;;10.69;76.47;98294.44;4975052;28;20243;-77
2022/04/08 00:28:06;;;;;;;3.13;1.20;;;;;;;10.67;75.97;98299.84;4975418;28;20637;-76
2022/04/08 00:30:31;;;;;;;2.67;1.00;;;;;;;10.67;75.38;98307.72;4976203;28;20318;-76
2022/04/08 00:32:57;;;;;;;2.73;1.20;;;;;;;10.62;75.14;98297.59;4976089;28;20204;-75
2022/04/08 00:35:23;;;;;;;3.40;2.15;;;;;;;10.63;74.54;98301.06;4975332;28;20593;-75
2022/04/08 00:37:50;;;;;;;3.53;0.93;;;;;;;10.62;74.39;98307.28;4975952;28;20711;-76
2022/04/08 00:40:16;;;;;;;2.75;0.98;;;;;;;10.62;74.06;98300.22;4976361;28;20471;-75
2022/04/08 00:42:42;;;;;;;2.53;1.67;;;;;;;10.60;73.44;98302.16;4975723;28;20263;-76
2022/04/08 00:45:09;;;;;;;2.33;1.00;;;;;;;10.57;73.12;98297.16;4975818;28;20486;-75
2022/04/08 00:47:36;;;;;;;2.72;1.25;;;;;;;10.57;72.07;98304.22;4975740;28;20239;-76
2022/04/08 00:50:03;;;;;;;3.38;1.75;;;;;;;10.55;70.75;98308.75;4976226;28;20566;-76
2022/04/08 00:52:31;;;;;;;2.88;1.20;;;;;;;10.55;69.31;98316.63;4975580;28;20215;-76
2022/04/08 00:54:57;;;;;;;3.90;1.45;;;;;;;10.54;67.68;98307.91;4975503;28;20243;-76
2022/04/08 00:57:23;;;;;;;4.23;1.50;;;;;;;10.55;65.69;98301.69;4975527;28;20321;-76
2022/04/08 00:59:48;;;;;;;6.17;1.50;;;;;;;10.56;64.48;98311.25;4975626;28;20215;-76
2022/04/08 01:02:15;;;;;;;5.90;1.70;;;;;;;10.58;63.67;98322.44;4974649;28;20476;-76
2022/04/08 01:04:40;;;;;;;3.25;1.30;;;;;;;10.59;63.45;98312.78;4981918;28;20226;-75
2022/04/08 01:07:06;;;;;;;5.00;1.23;;;;;;;10.57;63.78;98312.09;4991683;28;20203;-74
2022/04/08 01:09:32;;;;;;;2.53;1.40;;;;;;;10.54;64.46;98315.81;4991242;28;20249;-74
2022/04/08 01:11:58;;;;;;;4.03;1.80;;;;;;;10.50;66.29;98321.44;4991909;28;20239;-78
2022/04/08 01:14:24;;;;;;;1.05;0.95;;;;;;;10.42;68.49;98314.19;4993250;28;20566;-74
2022/04/08 01:16:49;;;;;;;2.25;1.35;;;;;;;10.34;69.98;98314.84;4994301;28;20716;-73
2022/04/08 01:19:15;;;;;;;3.60;0.93;;;;;;;10.27;70.54;98300.56;4992183;28;20208;-75
2022/04/08 01:21:40;;;;;;;4.67;1.70;;;;;;;10.26;69.43;98304.13;4989644;28;20219;-72
2022/04/08 01:24:10;;;;;;;0.93;0.90;;;;;;;10.26;68.29;98325.13;4990785;28;20205;-74
2022/04/08 01:26:36;;;;;;;2.72;1.20;;;;;;;10.27;68.22;98329.44;4991191;28;20319;-74
2022/04/08 01:29:02;;;;;;;4.47;1.42;;;;;;;10.25;68.33;98326.06;4992595;28;20234;-74
2022/04/08 01:31:29;;;;;;;1.93;1.10;;;;;;;10.24;68.94;98326.22;4992273;28;20948;-74
2022/04/08 01:33:55;;;;;;;2.67;1.15;;;;;;;10.22;69.44;98334.19;4992592;28;20207;-74
2022/04/08 01:36:21;;;;;;;3.20;1.20;;;;;;;10.20;69.60;98325.63;4991489;28;20228;-74
2022/04/08 01:38:46;;;;;;;3.93;1.50;;;;;;;10.17;69.90;98321.44;4991902;28;20242;-76
2022/04/08 01:41:12;;;;;;;5.80;1.23;;;;;;;10.17;70.12;98325.88;4993109;28;20238;-76
2022/04/08 01:43:37;;;;;;;2.83;1.43;;;;;;;10.14;70.05;98334.00;4991680;28;20246;-74
2022/04/08 01:46:03;;;;;;;3.33;1.17;;;;;;;10.13;69.94;98334.97;4987481;28;20330;-76
2022/04/08 01:48:28;;;;;;;4.27;1.60;;;;;;;10.12;70.12;98335.91;4980111;28;20661;-76
2022/04/08 01:50:53;;;;;;;3.17;1.10;;;;;;;10.10;70.38;98345.69;4979216;28;20274;-76
2022/04/08 01:53:19;;;;;;;2.23;1.03;;;;;;;10.09;70.97;98338.78;4979055;28;20215;-76
2022/04/08 01:55:45;;;;;;;2.67;1.60;;;;;;;10.05;71.75;98338.22;4980223;28;20321;-76
2022/04/08 01:58:10;;;;;;;2.00;1.50;;;;;;;10.00;72.45;98336.94;4978841;28;20232;-76
2022/04/08 02:00:37;;;;;;;2.90;1.23;;;;;;;9.96;73.30;98352.91;4979281;28;20603;-77
2022/04/08 02:03:02;;;;;;;4.38;1.52;;;;;;;9.93;73.25;98347.06;4976346;28;20218;-76
2022/04/08 02:05:27;;;;;;;4.23;1.40;;;;;;;9.90;73.67;98348.16;4979328;28;20227;-76
2022/04/08 02:07:54;;;;;;;2.23;1.30;;;;;;;9.88;74.29;98352.72;4978809;28;20444;-76
2022/04/08 02:10:20;;;;;;;2.08;1.58;;;;;;;9.85;74.71;98345.06;4979253;28;20262;-76
2022/04/08 02:12:45;;;;;;;3.53;1.43;;;;;;;9.83;74.94;98344.38;4978884;28;20739;-77
2022/04/08 02:15:11;;;;;;;1.83;1.03;;;;;;;9.80;75.32;98352.47;4979837;28;21081;-76
2022/04/08 02:17:36;;;;;;;2.13;1.70;;;;;;;9.80;75.50;98349.00;4977814;28;20259;-76
2022/04/08 02:20:04;;;;;;;3.53;1.57;;;;;;;9.79;75.63;98345.56;4995218;28;20779;-75
2022/04/08 02:22:30;;;;;;;1.77;1.48;;;;;;;9.78;76.21;98350.94;4978906;28;20215;-77
2022/04/08 02:24:57;;;;;;;2.78;1.20;;;;;;;9.75;76.21;98342.38;4978856;28;20581;-76
2022/04/08 02:27:23;;;;;;;3.72;1.35;;;;;;;9.76;76.44;98343.19;4978982;28;20367;-75
2022/04/08 02:29:49;;;;;;;4.00;1.70;;;;;;;9.75;76.49;98345.00;4978580;28;20251;-76
2022/04/08 02:32:15;;;;;;;4.20;1.80;;;;;;;9.75;76.44;98352.84;4978248;28;20487;-76
2022/04/08 02:34:40;;;;;;;3.10;1.60;;;;;;;9.75;76.91;98352.84;4978966;28;20238;-76
2022/04/08 02:37:06;;;;;;;1.87;1.10;;;;;;;9.75;75.10;98350.22;4981491;28;20246;-75
2022/04/08 02:39:32;;;;;;;2.80;1.67;;;;;;;9.76;74.82;98353.69;4984378;28;20222;-75
2022/04/08 02:41:58;;;;;;;3.77;1.90;;;;;;;9.77;74.91;98355.34;4985359;28;20215;-77
2022/04/08 02:44:24;;;;;;;2.73;2.53;;;;;;;9.77;74.99;98349.25;4982685;28;20628;-76
2022/04/08 02:46:49;;;;;;;1.40;1.20;;;;;;;9.77;75.00;98352.72;4978790;28;20708;-76
2022/04/08 02:49:15;;;;;;;5.00;1.70;;;;;;;9.75;75.20;98350.22;4978017;28;20593;-76
2022/04/08 02:51:40;;;;;;;6.67;1.47;;;;;;;9.75;75.50;98352.84;4979089;28;20279;-77
2022/04/08 02:54:06;;;;;;;2.20;1.60;;;;;;;9.74;75.63;98345.09;4984320;28;20261;-74
2022/04/08 02:56:31;;;;;;;5.10;1.67;;;;;;;9.72;75.73;98353.09;4987951;28;20259;-76
2022/04/08 02:58:57;;;;;;;7.37;1.93;;;;;;;9.71;75.98;98355.84;4979016;28;20208;-76
2022/04/08 03:01:23;;;;;;;3.67;1.37;;;;;;;9.68;76.30;98345.59;4977029;28;20199;-75
2022/04/08 03:03:48;;;;;;;3.67;1.75;;;;;;;9.67;76.52;98370.16;4977768;28;20524;-76
2022/04/08 03:06:14;;;;;;;3.50;2.67;;;;;;;9.63;76.80;98366.09;4980171;28;20234;-76
2022/04/08 03:08:40;;;;;;;4.37;1.80;;;;;;;9.61;76.95;98368.84;4980403;28;20212;-76
2022/04/08 03:11:05;;;;;;;4.73;2.10;;;;;;;9.60;77.37;98358.50;4979610;28;20684;-76
2022/04/08 03:13:31;;;;;;;2.90;2.17;;;;;;;9.58;77.48;98369.09;4977965;28;20517;-76
2022/04/08 03:15:57;;;;;;;3.17;1.73;;;;;;;9.57;77.79;98364.81;4980555;28;20383;-75
2022/04/08 03:18:22;;;;;;;5.60;1.60;;;;;;;9.55;78.18;98368.50;4977936;28;20217;-75
2022/04/08 03:20:48;;;;;;;2.67;2.10;;;;;;;9.50;78.57;98354.00;4977524;28;20219;-75
2022/04/08 03:23:13;;;;;;;4.40;2.07;;;;;;;9.48;79.31;98355.06;4976844;28;20281;-75
2022/04/08 03:25:38;;;;;;;3.87;2.40;;;;;;;9.43;79.35;98344.94;4978056;28;20282;-74
2022/04/08 03:28:04;;;;;;;6.73;3.00;;;;;;;9.39;79.68;98343.50;4979084;28;20230;-75
2022/04/08 03:30:31;;;;;;;9.00;3.10;;;;;;;9.36;79.85;98335.06;4976915;28;20216;-74
2022/04/08 03:32:57;;;;;;;10.73;5.47;;;;;;;9.36;80.52;98330.63;4976056;28;20497;-77
2022/04/08 03:35:23;;;;;;;8.20;4.90;;;;;;;9.32;81.08;98342.34;4978482;28;20238;-80
2022/04/08 03:37:48;;;;;;;7.57;3.00;;;;;;;9.29;81.33;98356.50;4981554;28;20548;-73
2022/04/08 03:40:14;;;;;;;6.30;2.70;;;;;;;9.27;81.27;98349.72;4987500;28;20215;-76
2022/04/08 03:42:39;;;;;;;8.93;5.15;;;;;;;9.24;81.40;98336.88;4986525;28;20199;-74
2022/04/08 03:45:06;;;;;;;8.50;4.30;;;;;;;9.22;81.36;98330.91;4987414;28;20247;-73
2022/04/08 03:47:31;;;;;;;16.83;5.30;;;;;;;9.19;81.45;98323.28;4985380;28;20191;-73
2022/04/08 03:49:57;;;;;;;9.87;5.60;;;;;;;9.18;81.56;98321.59;4982207;28;20658;-74
2022/04/08 03:52:23;;;;;;;8.25;5.00;;;;;;;9.16;81.55;98329.59;4978178;28;20279;-75
2022/04/08 03:54:48;;;;;;;10.52;4.35;;;;;;;9.15;81.67;98332.31;4975986;28;20353;-75
2022/04/08 03:57:14;;;;;;;13.47;5.90;;;;;;;9.15;81.50;98332.31;4976754;28;20594;-76
2022/04/08 03:59:41;;;;;;;6.93;3.60;;;;;;;9.14;81.82;98328.88;4976796;28;20232;-75
2022/04/08 04:02:07;;;;;;;6.60;2.22;;;;;;;9.14;81.71;98336.72;4976497;28;20211;-76
2022/04/08 04:04:33;;;;;;;4.03;2.88;;;;;;;9.13;81.79;98334.22;4976516;28;20321;-75
2022/04/08 04:06:58;;;;;;;2.65;1.95;;;;;;;9.09;82.26;98349.34;4976286;28;20600;-75
2022/04/08 04:09:24;;;;;;;4.37;2.43;;;;;;;9.07;82.16;98353.88;5007323;28;20919;-75
2022/04/08 04:11:50;;;;;;;4.87;2.27;;;;;;;9.05;82.34;98348.78;5015801;28;20256;-75
2022/04/08 04:14:15;;;;;;;5.43;2.00;;;;;;;9.03;82.49;98349.84;4999217;28;20297;-75
2022/04/08 04:16:41;;;;;;;4.10;2.50;;;;;;;9.02;82.63;98353.41;5015313;28;20329;-75
2022/04/08 04:19:06;;;;;;;5.50;2.27;;;;;;;9.01;82.68;98347.31;5000536;28;20269;-75
2022/04/08 04:21:33;;;;;;;5.13;2.80;;;;;;;9.04;82.70;98341.00;4999540;28;20211;-75
2022/04/08 04:23:58;;;;;;;4.28;1.83;;;;;;;9.04;82.71;98344.47;5000304;28;20213;-75
2022/04/08 04:26:23;;;;;;;4.30;1.97;;;;;;;9.06;82.74;98344.34;5002417;28;20597;-75
2022/04/08 04:28:49;;;;;;;3.27;2.20;;;;;;;9.08;82.60;98353.75;5000058;28;20663;-76
2022/04/08 04:31:14;;;;;;;8.73;2.47;;;;;;;9.09;82.68;98344.13;4999175;28;20198;-76
2022/04/08 04:33:39;;;;;;;3.43;1.90;;;;;;;9.08;82.72;98343.28;5001379;28;20683;-74
2022/04/08 04:36:05;;;;;;;7.97;2.50;;;;;;;9.08;82.66;98347.69;4999708;28;20289;-76
2022/04/08 04:38:30;;;;;;;6.20;2.83;;;;;;;9.06;82.67;98352.22;4999353;28;20217;-73
2022/04/08 04:40:59;;;;;;;6.50;2.73;;;;;;;9.05;82.88;98345.31;4999794;28;20214;-74
2022/04/08 04:43:24;;;;;;;4.10;2.05;;;;;;;9.02;83.09;98351.63;5001363;28;20503;-74
2022/04/08 04:45:49;;;;;;;3.00;2.43;;;;;;;9.02;83.01;98349.00;4999421;28;20305;-75
2022/04/08 04:48:16;;;;;;;9.10;3.50;;;;;;;9.00;83.25;98339.59;5000116;28;20199;-75
2022/04/08 04:50:42;;;;;;;4.75;2.00;;;;;;;8.98;83.25;98347.56;5000194;28;20648;-75
2022/04/08 04:53:07;;;;;;;3.30;2.70;;;;;;;8.97;83.40;98335.44;4999062;28;20226;-76
2022/04/08 04:55:33;;;;;;;12.87;9.53;;;;;;;8.94;83.39;98334.81;5001106;28;20240;-74
2022/04/08 04:57:58;;;;;;;5.57;2.27;;;;;;;8.94;83.59;98335.69;4998835;28;20241;-76
2022/04/08 05:00:24;;;;;;;2.17;2.00;;;;;;;8.92;83.53;98334.13;5001806;28;20218;-76
2022/04/08 05:02:49;;;;;;;3.53;2.30;;;;;;;8.94;83.75;98326.97;5001029;28;20477;-76
2022/04/08 05:05:14;;;;;;;4.30;2.07;;;;;;;8.91;84.11;98345.53;5001306;28;20237;-75
2022/04/08 05:07:40;;;;;;;4.03;2.20;;;;;;;8.89;83.94;98329.97;5000149;28;20199;-76
2022/04/08 05:10:07;;;;;;;3.50;1.60;;;;;;;8.85;83.78;98324.09;4998245;28;20576;-76
2022/04/08 05:12:35;;;;;;;4.53;2.15;;;;;;;8.81;83.74;98335.78;5002476;28;20582;-76
2022/04/08 05:15:06;;;;;;;5.30;2.80;;;;;;;8.83;83.72;98338.25;5000836;28;20839;-73
2022/04/08 05:17:35;;;;;;;3.33;1.58;;;;;;;8.80;83.71;98347.22;4999979;28;20715;-76
2022/04/08 05:20:07;;;;;;;2.15;1.52;;;;;;;8.71;83.95;98324.34;5001987;28;20214;-75
2022/04/08 05:22:33;;;;;;;4.50;1.77;;;;;;;8.57;83.60;98311.47;5002139;28;20856;-73
2022/04/08 05:24:59;;;;;;;5.63;1.40;;;;;;;8.43;82.70;98320.38;5004610;28;20304;-76
2022/04/08 05:27:25;;;;;;;3.30;1.33;;;;;;;8.39;82.80;98325.00;5003982;28;20477;-74
2022/04/08 05:29:51;;;;;;;1.52;1.40;;;;;;;8.37;83.00;98324.25;5002225;28;20490;-76
2022/04/08 05:32:17;;;;;;;3.40;1.60;;;;;;;8.36;83.23;98326.97;5006527;28;20490;-75
2022/04/08 05:34:42;;;;;;;1.97;1.87;;;;;;;8.30;82.85;98312.56;5007067;28;20219;-72
2022/04/08 05:37:08;;;;;;;2.00;1.80;;;;;;;8.23;83.06;98323.59;5009882;28;20241;-76
2022/04/08 05:39:33;;;;;;;2.17;1.97;;;;;;;8.19;83.10;98318.63;5008974;28;20199;-73
2022/04/08 05:41:59;;;;;;;2.93;2.63;;;;;;;8.18;82.86;98326.56;5005953;28;20214;-75
2022/04/08 05:44:24;;;;;;;2.50;1.10;;;;;;;8.16;82.52;98312.78;5006056;28;20257;-73
2022/04/08 05:46:49;;;;;;;2.43;1.30;;;;;;;8.12;82.29;98306.09;5010230;28;20233;-76
2022/04/08 05:49:15;;;;;;;1.70;1.00;;;;;;;8.10;82.39;98314.06;5007976;28;20220;-73
2022/04/08 05:51:40;;;;;;;2.50;2.30;;;;;;;8.11;82.52;98323.56;5007480;28;20210;-76
2022/04/08 05:54:06;;;;;;;3.00;1.40;;;;;;;8.11;82.47;98323.56;5006608;28;20808;-75
2022/04/08 05:56:31;;;;;;;4.20;1.23;;;;;;;8.09;82.14;98320.22;5006496;28;20288;-76
2022/04/08 05:58:58;;;;;;;2.40;1.70;;;;;;;8.07;82.14;98323.91;5006966;28;20671;-74
2022/04/08 06:01:23;;;;;;;1.60;1.50;;;;;;;8.02;81.86;98318.19;5009002;28;20590;-75
2022/04/08 06:03:49;;;;;;;3.47;1.10;;;;;;;7.96;82.02;98311.63;5009298;28;20225;-74
2022/04/08 06:06:14;;;;;;;1.57;1.00;;;;;;;7.91;82.15;98316.34;5008719;28;20230;-76
2022/04/08 06:08:39;;;;;;;2.70;0.90;;;;;;;7.89;82.04;98316.47;5002468;28;20234;-74
2022/04/08 06:11:05;;;;;;;2.27;1.20;;;;;;;7.84;81.75;98305.53;5005362;28;20630;-75
2022/04/08 06:13:30;;;;;;;2.57;1.10;;;;;;;7.75;81.77;98303.59;5005439;28;20562;-73
2022/04/08 06:15:56;;;;;;;2.43;1.60;;;;;;;7.71;82.14;98309.97;5005644;28;20726;-75
2022/04/08 06:18:22;;;;;;;10.33;2.53;;;;;;;7.70;82.20;98306.53;5005476;28;20241;-75
2022/04/08 06:20:47;;;;;;;4.23;1.40;;;;;;;7.67;82.13;98295.44;5005495;28;20555;-74
2022/04/08 06:23:13;;;;;;;2.27;1.27;;;;;;;7.58;82.53;98291.72;5004863;28;20210;-72
2022/04/08 06:25:38;;;;;;;3.57;1.30;;;;;;;7.50;82.53;98291.47;5005024;28;20250;-75
2022/04/08 06:28:06;;;;;;;1.77;1.00;;;;;;;7.48;83.00;98285.50;5005116;28;20221;-75
2022/04/08 06:30:35;;;;;;;1.13;0.85;;;;;;;7.48;82.98;98285.50;5005951;28;20225;-72
2022/04/08 06:33:02;;;;;;;4.30;1.38;;;;;;;7.52;83.12;98274.72;5003281;28;20841;-76
2022/04/08 06:35:27;;;;;;;5.00;1.30;;;;;;;7.47;83.02;98274.22;5003420;28;20295;-75
2022/04/08 06:38:04;;;;;;;2.23;1.30;;;;;;;7.41;83.32;98273.84;5004566;28;20234;-71
2022/04/08 06:40:32;;;;;;;2.30;1.40;;;;;;;7.44;83.33;98271.00;5005373;28;20726;-76
2022/04/08 06:42:59;;;;;;;2.22;1.10;;;;;;;7.45;83.41;98267.44;5004878;28;20230;-74
2022/04/08 06:45:26;;;;;;;1.52;0.90;;;;;;;7.45;83.40;98260.47;5003140;28;20739;-73
2022/04/08 06:47:52;;;;;;;1.10;1.00;;;;;;;7.43;83.48;98261.50;5004202;28;20211;-73
2022/04/08 06:50:18;;;;;;;1.60;1.15;;;;;;;7.34;83.73;98267.38;5003428;28;20678;-75
2022/04/08 06:52:44;;;;;;;3.63;1.40;;;;;;;7.32;83.88;98260.50;5003796;28;20287;-72
2022/04/08 06:55:10;;;;;;;2.17;1.60;;;;;;;7.36;84.10;98252.44;5004029;28;20807;-75
2022/04/08 06:57:36;;;;;;;2.33;2.03;;;;;;;7.34;84.13;98242.09;5001632;28;20490;-76
2022/04/08 07:00:06;;;;;;;2.03;1.20;;;;;;;7.32;84.09;98247.44;5004082;28;20217;-73
2022/04/08 07:02:32;;;;;;;3.38;1.70;;;;;;;7.33;84.27;98240.44;5001333;28;20475;-73
2022/04/08 07:04:57;;;;;;;2.20;2.00;;;;;;;7.33;84.92;98237.81;5004019;28;20753;-76
2022/04/08 07:07:27;;;;;;;4.00;1.47;;;;;;;7.41;84.95;98232.03;5003138;28;20206;-72
2022/04/08 07:09:52;;;;;;;2.72;1.60;;;;;;;7.45;84.69;98228.25;5002447;28;20688;-74
2022/04/08 07:12:18;;;;;;;1.60;1.40;;;;;;;7.44;84.78;98218.75;5000888;28;20211;-74
2022/04/08 07:14:43;;;;;;;2.03;1.20;;;;;;;7.41;84.96;98218.97;5003878;28;20246;-74
2022/04/08 07:17:09;;;;;;;1.83;1.23;;;;;;;7.36;85.28;98213.25;5004413;28;20265;-75
2022/04/08 07:19:34;;;;;;;3.50;1.73;;;;;;;7.34;84.92;98210.75;5004885;28;20210;-73
2022/04/08 07:21:59;;;;;;;1.60;1.40;;;;;;;7.29;85.25;98211.09;5004995;28;20207;-76
2022/04/08 07:24:25;;;;;;;1.60;1.47;;;;;;;7.31;85.44;98205.75;5004927;28;21017;-74
2022/04/08 07:26:50;;;;;;;2.30;1.30;;;;;;;7.30;85.50;98197.09;5003958;28;20262;-73
2022/04/08 07:29:16;;;;;;;2.97;1.40;;;;;;;7.31;85.21;98184.84;5007198;28;20292;-76
2022/04/08 07:31:41;;;;;;;2.90;1.40;;;;;;;7.32;85.26;98186.53;5002297;28;20202;-73
2022/04/08 07:34:06;;;;;;;3.83;1.73;;;;;;;7.34;85.64;98175.97;5016617;28;20494;-76
2022/04/08 07:36:32;;;;;;;2.57;1.10;;;;;;;7.34;85.48;98176.78;5000760;28;20241;-73
2022/04/08 07:38:57;;;;;;;2.63;1.33;;;;;;;7.34;85.14;98170.72;5005240;28;20803;-76
2022/04/08 07:41:22;;;;;;;1.63;0.90;;;;;;;7.38;85.15;98159.13;5009777;28;20301;-73
2022/04/08 07:43:50;;;;;;;3.23;1.63;;;;;;;7.37;85.59;98154.84;5012182;28;20214;-75
2022/04/08 07:46:15;;;;;;;2.33;1.17;;;;;;;7.39;85.54;98150.34;5009514;28;20307;-76
2022/04/08 07:48:40;;;;;;;2.50;1.23;;;;;;;7.43;85.68;98136.13;5009936;28;20841;-74
2022/04/08 07:51:06;;;;;;;3.47;1.60;;;;;;;7.44;85.53;98143.81;5009349;28;20209;-74
2022/04/08 07:53:32;;;;;;;2.07;1.07;;;;;;;7.45;85.79;98129.84;5010607;28;20445;-75
2022/04/08 07:55:57;;;;;;;1.60;1.07;;;;;;;7.48;85.40;98126.13;5008413;28;20468;-74
2022/04/08 07:58:23;;;;;;;2.50;1.87;;;;;;;7.56;85.65;98126.41;5009063;28;20480;-74
2022/04/08 08:00:51;;;;;;;2.60;2.33;;;;;;;7.67;85.27;98115.13;5007951;28;20897;-73
2022/04/08 08:03:19;;;;;;;2.70;1.90;;;;;;;7.71;84.94;98111.34;5007496;28;20521;-72
2022/04/08 08:05:45;;;;;;;4.40;1.50;;;;;;;7.72;85.13;98100.78;4982386;28;20476;-74
2022/04/08 08:08:10;;;;;;;1.97;1.30;;;;;;;7.78;85.06;98093.41;5008948;28;20553;-73
2022/04/08 08:10:36;;;;;;;1.73;1.40;;;;;;;7.88;84.61;98074.28;5000420;28;20202;-76
2022/04/08 08:13:02;;;;;;;1.20;1.10;;;;;;;7.96;84.54;98073.69;5006147;28;20580;-79
2022/04/08 08:15:30;;;;;;;2.97;1.70;;;;;;;7.96;84.66;98055.41;5010360;28;20322;-72
2022/04/08 08:17:57;;;;;;;1.40;1.30;;;;;;;7.96;84.96;98051.00;5009197;28;20280;-75
2022/04/08 08:20:24;;;;;;;2.25;1.38;;;;;;;8.02;84.55;98041.00;5004685;28;20222;-76
2022/04/08 08:22:50;;;;;;;2.65;1.80;;;;;;;8.05;84.64;98035.56;5008028;28;20613;-72
2022/04/08 08:25:17;;;;;;;4.68;2.30;;;;;;;8.05;84.67;98019.88;5007583;28;20236;-73
2022/04/08 08:27:51;;;;;;;2.47;1.70;;;;;;;8.03;84.74;98014.75;5007068;28;20746;-76
2022/04/08 08:30:17;;;;;;;2.58;2.35;;;;;;;8.06;84.97;97998.00;5007215;28;20756;-76
2022/04/08 08:32:45;;;;;;;1.65;1.40;;;;;;;8.08;85.37;97986.47;5006731;28;20241;-75
2022/04/08 08:35:13;;;;;;;2.33;2.13;;;;;;;8.10;85.64;97983.72;5007785;28;20295;-75
2022/04/08 08:37:38;;;;;;;2.47;1.58;;;;;;;8.18;85.34;97979.56;5006799;28;20325;-75
2022/04/08 08:40:05;;;;;;;4.00;1.60;;;;;;;8.33;85.69;97967.00;5006630;28;20477;-75
2022/04/08 08:42:32;;;;;;;2.85;1.80;;;;;;;8.57;84.90;97955.56;5005134;28;20215;-73
2022/04/08 08:44:57;;;;;;;3.70;2.10;;;;;;;8.81;84.36;97948.28;5006319;28;20226;-76
2022/04/08 08:47:27;;;;;;;2.50;1.70;;;;;;;9.05;83.71;97944.59;5007181;28;20229;-75
2022/04/08 08:49:52;;;;;;;1.77;1.67;;;;;;;9.24;83.25;97943.88;5006801;28;20210;-76
2022/04/08 08:52:21;;;;;;;2.93;2.07;;;;;;;9.34;82.96;97936.88;5006717;28;20284;-77
2022/04/08 08:54:47;;;;;;;2.67;1.63;;;;;;;9.36;82.69;97936.75;5004826;28;20226;-76
2022/04/08 08:57:19;;;;;;;4.10;1.90;;;;;;;9.34;82.51;97926.38;5007454;28;20237;-73
2022/04/08 08:59:46;;;;;;;2.22;1.70;;;;;;;9.36;82.44;97923.66;5006954;28;20403;-73
2022/04/08 09:02:19;;;;;;;3.42;2.33;;;;;;;9.41;82.54;97918.84;5006469;28;20503;-76
2022/04/08 09:04:45;;;;;;;4.78;1.95;;;;;;;9.39;82.90;97911.09;5006249;28;20333;-73
2022/04/08 09:07:29;;;;;;;4.70;2.10;;;;;;;9.41;83.16;97906.56;5005566;28;20671;-75
2022/04/08 09:09:56;;;;;;;2.10;1.90;;;;;;;9.42;82.97;97899.53;5004740;28;20222;-74
2022/04/08 09:12:24;;;;;;;3.78;1.92;;;;;;;9.49;83.05;97895.41;5005939;28;20560;-73
2022/04/08 09:14:51;;;;;;;3.22;2.58;;;;;;;9.57;82.78;97895.59;5006126;28;20746;-74
2022/04/08 09:17:18;;;;;;;2.73;2.30;;;;;;;9.64;82.70;97901.09;4662934;28;10253582;-74
2022/04/08 09:19:57;;;;;;;3.40;2.80;;;;;;;9.72;82.96;97899.50;5006477;28;20242;-73
2022/04/08 09:22:32;;;;;;;4.22;2.72;;;;;;;9.79;82.84;97893.72;5007302;28;20219;-74
2022/04/08 09:25:18;;;;;;;2.97;2.33;;;;;;;9.85;83.16;97909.72;5006988;28;20229;-75
2022/04/08 09:27:44;;;;;;;3.35;2.63;;;;;;;9.87;83.19;97899.13;5008573;28;20207;-75
2022/04/08 09:30:10;;;;;;;4.63;2.60;;;;;;;9.91;83.11;97888.22;5012171;28;20226;-75
2022/04/08 09:32:36;;;;;;;4.05;2.88;;;;;;;10.00;83.91;97893.63;5020533;28;20784;-76
2022/04/08 09:35:03;;;;;;;4.47;2.47;;;;;;;10.00;84.30;97891.00;5005477;28;20675;-76
2022/04/08 09:37:29;;;;;;;7.43;2.42;;;;;;;9.99;84.40;97887.56;5005407;28;20485;-76
2022/04/08 09:40:00;;;;;;;3.00;2.40;;;;;;;9.94;84.12;97874.84;5005269;28;20219;-76
2022/04/08 09:42:45;;;;;;;3.60;1.33;;;;;;;9.88;84.67;97870.16;5001779;28;20634;-76
2022/04/08 09:45:11;;;;;;;1.00;0.90;;;;;;;9.88;84.55;97856.19;5005411;28;20274;-76
2022/04/08 09:47:38;;;;;;;1.25;1.10;;;;;;;9.91;84.30;97848.03;5004290;28;20206;-75
2022/04/08 09:50:05;;;;;;;2.60;1.13;;;;;;;9.95;84.62;97849.44;5004247;28;20390;-74
2022/04/08 09:52:31;;;;;;;1.20;1.00;;;;;;;10.03;84.39;97857.44;5006090;28;20211;-74
2022/04/08 09:54:59;;;;;;;1.50;1.17;;;;;;;10.09;84.26;97829.84;5004550;28;20492;-74
2022/04/08 09:57:28;;;;;;;1.75;1.00;;;;;;;10.13;84.06;97815.50;5004709;28;20234;-74
2022/04/08 09:59:59;;;;;;;2.92;1.83;;;;;;;10.26;84.14;97820.44;5005929;28;20210;-75
2022/04/08 10:02:28;;;;;;;2.60;1.50;;;;;;;10.43;84.02;97805.81;5004659;28;20481;-74
2022/04/08 10:04:55;;;;;;;1.70;1.20;;;;;;;10.56;84.13;97801.09;5008405;28;20238;-74
2022/04/08 10:07:21;;;;;;;1.60;1.20;;;;;;;10.69;83.84;97800.75;5006011;28;20910;-74
2022/04/08 10:10:22;;;;;;;1.30;1.20;;;;;;;10.82;83.78;97791.59;5008283;28;20595;-74
2022/04/08 10:13:03;;;;;;;1.98;1.00;;;;;;;10.95;83.27;97779.94;4999820;28;20218;-74
2022/04/08 10:15:38;;;;;;;1.30;1.20;;;;;;;11.03;83.43;97775.63;5004749;28;20270;-74
2022/04/08 10:18:04;;;;;;;1.27;1.10;;;;;;;11.06;83.54;97770.06;5014904;28;20591;-74
2022/04/08 10:20:35;;;;;;;1.90;1.40;;;;;;;11.12;83.66;97754.69;5021219;28;20567;-74
2022/04/08 10:23:05;;;;;;;1.70;0.95;;;;;;;11.18;83.88;97752.31;5025653;28;20225;-74
2022/04/08 10:25:44;;;;;;;2.45;1.30;;;;;;;11.21;84.03;97744.16;5022149;28;20237;-74
2022/04/08 10:28:11;;;;;;;1.20;1.10;;;;;;;11.25;83.95;97731.53;5023882;28;20296;-74
2022/04/08 10:30:48;;;;;;;5.95;1.45;;;;;;;11.33;83.92;97736.03;5022988;28;20450;-74
2022/04/08 10:33:23;;;;;;;1.50;1.20;;;;;;;11.47;84.37;97720.56;5025624;28;20946;-74
2022/04/08 10:35:53;;;;;;;1.17;1.08;;;;;;;11.57;84.20;97704.75;5020948;28;20503;-74
2022/04/08 10:38:19;;;;;;;1.30;1.10;;;;;;;11.65;83.91;97719.78;5015220;28;20719;-74
2022/04/08 10:40:53;;;;;;;1.77;1.07;;;;;;;11.71;83.77;97703.38;5007381;28;20763;-74
2022/04/08 10:43:18;;;;;;;1.33;0.98;;;;;;;11.74;83.85;97696.00;5006913;28;20217;-74
2022/04/08 10:45:56;;;;;;;1.20;1.10;;;;;;;11.81;83.67;97692.78;5008236;28;20238;-74
2022/04/08 10:48:22;;;;;;;1.10;1.00;;;;;;;11.86;83.73;97682.66;5008809;28;20213;-75
2022/04/08 10:50:47;;;;;;;1.37;0.83;;;;;;;11.93;83.61;97681.06;5006546;28;20300;-74
2022/04/08 10:53:24;;;;;;;0.83;0.83;;;;;;;12.00;83.43;97682.09;5011147;28;20444;-74
2022/04/08 10:55:53;;;;;;;1.30;1.00;;;;;;;12.07;83.39;97659.47;5007104;28;20265;-74
2022/04/08 10:58:35;;;;;;;0.90;0.82;;;;;;;12.13;83.22;97656.22;5008733;28;20230;-74
2022/04/08 11:01:19;;;;;;;1.35;0.80;;;;;;;12.20;83.17;97666.09;5008035;28;20503;-74
2022/04/08 11:03:53;;;;;;;1.02;0.88;;;;;;;12.25;83.04;97669.09;5007768;28;21471;-74
2022/04/08 11:06:19;;;;;;;1.80;0.90;;;;;;;12.30;82.88;97669.47;5006732;28;20238;-74
2022/04/08 11:08:45;;;;;;;0.80;0.80;;;;;;;12.34;82.69;97657.63;5007210;28;20302;-75
2022/04/08 11:11:11;;;;;;;2.05;0.80;;;;;;;12.38;82.67;97654.53;5008659;28;20675;-73
2022/04/08 11:13:43;;;;;;;1.60;0.90;;;;;;;12.46;82.58;97663.47;5005509;28;20218;-73
2022/04/08 11:16:09;;;;;;;0.70;0.60;;;;;;;12.54;81.93;97647.69;5009028;28;20287;-76
2022/04/08 11:18:35;;;;;;;1.13;0.80;;;;;;;12.61;81.68;97652.19;5008576;28;20234;-74
2022/04/08 11:21:01;;;;;;;1.00;0.70;;;;;;;12.69;81.25;97653.16;5011594;28;20211;-75
2022/04/08 11:23:32;;;;;;;1.00;0.80;;;;;;;12.77;81.00;97642.66;5011515;28;20202;-74
2022/04/08 11:25:58;;;;;;;0.90;0.80;;;;;;;12.84;80.50;97670.84;5010688;28;20281;-72
2022/04/08 11:28:24;;;;;;;1.63;1.00;;;;;;;12.92;79.60;97656.88;5013715;28;20678;-74
2022/04/08 11:30:57;;;;;;;0.77;0.70;;;;;;;13.02;78.36;97665.47;5005921;28;20452;-74
2022/04/08 11:33:24;;;;;;;0.80;0.70;;;;;;;13.14;77.75;97655.44;5007396;28;21387;-73
2022/04/08 11:35:58;;;;;;;0.70;0.60;;;;;;;13.17;77.13;97646.41;5008335;28;20777;-74
2022/04/08 11:38:25;;;;;;;1.08;0.68;;;;;;;13.24;76.04;97657.97;5013337;28;20266;-74